createdAt,value
2017-10-23T00:01:24.598Z,7.93
2017-10-23T00:03:52.129Z,19.10
2017-10-23T00:06:19.657Z,6.73
2017-10-23T00:08:47.207Z,7.83
2017-10-23T00:11:15.532Z,9.57
2017-10-23T00:13:43.066Z,8.23
2017-10-23T00:16:10.593Z,10.23
2017-10-23T00:18:38.164Z,5.87
2017-10-23T00:21:06.238Z,13.50
2017-10-23T00:23:33.773Z,8.53
2017-10-23T00:26:01.303Z,5.47
2017-10-23T00:28:28.829Z,9.53
2017-10-23T00:30:56.358Z,8.03
2017-10-23T00:33:23.881Z,7.97
2017-10-23T00:35:51.457Z,9.83
2017-10-23T00:38:19.566Z,6.90
2017-10-23T00:40:47.098Z,7.23
2017-10-23T00:43:14.622Z,7.20
2017-10-23T00:45:42.157Z,10.70
2017-10-23T00:48:09.684Z,6.67
2017-10-23T00:50:37.256Z,10.43
2017-10-23T00:53:05.557Z,8.00
2017-10-23T00:55:33.085Z,9.73
2017-10-23T00:58:00.616Z,9.43
2017-10-23T01:00:28.198Z,10.37
2017-10-23T01:02:56.380Z,6.03
2017-10-23T01:05:24.802Z,7.67
2017-10-23T01:07:52.333Z,11.40
2017-10-23T01:10:19.861Z,10.40
2017-10-23T01:12:48.300Z,6.80
2017-10-23T01:15:15.832Z,13.97
2017-10-23T01:17:44.138Z,7.63
2017-10-23T01:20:11.675Z,10.83
2017-10-23T01:22:39.209Z,13.40
2017-10-23T01:25:06.779Z,9.77
2017-10-23T01:27:34.301Z,9.40
2017-10-23T01:30:01.872Z,7.47
2017-10-23T01:32:29.404Z,9.50
2017-10-23T01:34:57.517Z,10.70
2017-10-23T01:37:25.057Z,11.93
2017-10-23T01:39:52.585Z,11.47
2017-10-23T01:42:20.109Z,10.57
2017-10-23T01:44:47.696Z,8.80
2017-10-23T01:47:15.230Z,13.50
2017-10-23T01:49:42.762Z,7.83
2017-10-23T01:52:10.294Z,10.60
2017-10-23T01:54:38.605Z,10.50
2017-10-23T01:57:06.944Z,25.97
2017-10-23T01:59:34.473Z,13.30
2017-10-23T02:02:02.038Z,12.57
2017-10-23T02:04:30.349Z,11.23
2017-10-23T02:06:57.876Z,9.60
2017-10-23T02:09:25.680Z,11.77
2017-10-23T02:11:53.211Z,14.50
2017-10-23T02:14:21.675Z,15.57
2017-10-23T02:16:49.209Z,10.97
2017-10-23T02:19:16.748Z,8.63
2017-10-23T02:21:44.289Z,12.97
2017-10-23T02:24:11.857Z,13.33
2017-10-23T02:26:39.391Z,10.63
2017-10-23T02:29:06.956Z,12.17
2017-10-23T02:31:35.295Z,18.90
2017-10-23T02:34:02.869Z,15.43
2017-10-23T02:36:30.413Z,12.00
2017-10-23T02:38:57.949Z,10.60
2017-10-23T02:41:25.481Z,13.70
2017-10-23T02:43:53.044Z,9.30
2017-10-23T02:46:20.580Z,13.00
2017-10-23T02:48:48.114Z,15.67
2017-10-23T02:51:15.695Z,11.47
2017-10-23T02:53:43.234Z,12.13
2017-10-23T02:56:10.812Z,18.77
2017-10-23T02:58:38.361Z,15.40
2017-10-23T03:01:05.901Z,13.17
2017-10-23T03:03:33.439Z,14.43
2017-10-23T03:06:01.764Z,13.07
2017-10-23T03:08:29.339Z,11.87
2017-10-23T03:10:56.888Z,10.27
2017-10-23T03:13:24.460Z,10.90
2017-10-23T03:15:51.979Z,10.30
2017-10-23T03:18:20.295Z,13.27
2017-10-23T03:20:47.836Z,9.83
2017-10-23T03:23:16.154Z,11.90
2017-10-23T03:25:43.688Z,11.77
2017-10-23T03:28:11.212Z,23.23
2017-10-23T03:30:39.577Z,14.63
2017-10-23T03:33:07.113Z,12.63
2017-10-23T03:35:35.577Z,11.13
2017-10-23T03:38:03.112Z,13.93
2017-10-23T03:40:31.561Z,14.73
2017-10-23T03:42:59.094Z,9.03
2017-10-23T03:45:27.543Z,10.33
2017-10-23T03:47:55.075Z,14.87
2017-10-23T03:50:22.611Z,9.63
2017-10-23T03:52:50.817Z,13.43
2017-10-23T03:55:19.292Z,17.67
2017-10-23T03:57:46.873Z,11.50
2017-10-23T04:00:14.411Z,11.37
2017-10-23T04:02:42.758Z,9.60
2017-10-23T04:05:11.204Z,15.73
2017-10-23T04:07:38.771Z,16.87
2017-10-23T04:10:07.121Z,15.10
2017-10-23T04:12:34.669Z,24.00
2017-10-23T04:15:03.014Z,14.40
2017-10-23T04:17:30.554Z,13.43
2017-10-23T04:19:58.136Z,13.23
2017-10-23T04:22:26.474Z,17.60
2017-10-23T04:24:54.020Z,15.33
2017-10-23T04:27:22.294Z,16.50
2017-10-23T04:29:49.823Z,12.00
2017-10-23T04:32:18.150Z,13.27
2017-10-23T04:34:45.681Z,14.63
2017-10-23T04:37:13.210Z,16.70
2017-10-23T04:39:40.745Z,14.47
2017-10-23T04:42:09.067Z,13.90
2017-10-23T04:44:36.634Z,18.93
2017-10-23T04:47:04.161Z,16.73
2017-10-23T04:49:31.702Z,18.17
2017-10-23T04:51:59.271Z,15.10
2017-10-23T04:54:26.804Z,17.57
2017-10-23T04:56:54.340Z,15.70
2017-10-23T04:59:21.905Z,17.60
2017-10-23T05:01:49.476Z,13.50
2017-10-23T05:04:17.018Z,19.03
2017-10-23T05:06:44.547Z,18.87
2017-10-23T05:09:12.089Z,14.13
2017-10-23T05:11:39.620Z,19.10
2017-10-23T05:14:07.153Z,14.33
2017-10-23T05:16:34.717Z,17.37
2017-10-23T05:19:02.248Z,16.07
2017-10-23T05:21:29.788Z,25.50
2017-10-23T05:23:57.324Z,19.53
2017-10-23T05:26:24.865Z,19.63
2017-10-23T05:28:53.431Z,17.60
2017-10-23T05:31:21.435Z,20.30
2017-10-23T05:33:48.968Z,19.03
2017-10-23T05:36:16.500Z,21.13
2017-10-23T05:38:44.060Z,18.27
2017-10-23T05:41:12.372Z,20.67
2017-10-23T05:43:39.906Z,16.73
2017-10-23T05:46:07.465Z,21.50
2017-10-23T05:48:34.996Z,20.27
2017-10-23T05:51:02.532Z,29.83
2017-10-23T05:53:30.064Z,25.50
2017-10-23T05:55:58.525Z,25.93
2017-10-23T05:58:26.056Z,24.60
2017-10-23T06:00:54.376Z,24.40
2017-10-23T06:03:21.910Z,21.47
2017-10-23T06:05:49.454Z,29.23
2017-10-23T06:08:17.917Z,21.00
2017-10-23T06:10:45.743Z,21.83
2017-10-23T06:13:14.670Z,25.17
2017-10-23T06:15:43.131Z,21.17
2017-10-23T06:18:10.662Z,22.47
2017-10-23T06:20:39.092Z,24.97
2017-10-23T06:23:06.676Z,22.70
2017-10-23T06:25:35.119Z,24.10
2017-10-23T06:28:02.688Z,21.83
2017-10-23T06:30:30.283Z,21.50
2017-10-23T06:32:57.822Z,21.23
2017-10-23T06:35:26.133Z,19.13
2017-10-23T06:37:53.660Z,32.03
2017-10-23T06:40:21.224Z,18.20
2017-10-23T06:42:49.633Z,21.10
2017-10-23T06:45:17.203Z,19.63
2017-10-23T06:47:46.268Z,27.53
2017-10-23T06:50:13.803Z,20.17
2017-10-23T06:52:42.248Z,27.30
2017-10-23T06:55:09.779Z,25.97
2017-10-23T06:57:38.104Z,24.57
2017-10-23T07:00:05.641Z,22.23
2017-10-23T07:02:34.139Z,22.60
2017-10-23T07:05:01.687Z,22.20
2017-10-23T07:07:30.038Z,29.50
2017-10-23T07:09:57.638Z,19.20
2017-10-23T07:12:25.970Z,24.00
2017-10-23T07:14:53.508Z,20.80
2017-10-23T07:17:21.047Z,24.60
2017-10-23T07:19:49.386Z,20.77
2017-10-23T07:22:17.929Z,20.97
2017-10-23T07:24:48.120Z,21.70
2017-10-23T07:27:18.630Z,17.63
2017-10-23T07:29:47.624Z,20.00
2017-10-23T07:32:16.227Z,23.00
2017-10-23T07:34:43.773Z,20.77
2017-10-23T07:37:12.004Z,15.80
2017-10-23T07:39:39.568Z,26.50
2017-10-23T07:42:08.003Z,22.87
2017-10-23T07:44:35.581Z,17.83
2017-10-23T07:47:03.912Z,11.90
2017-10-23T07:49:31.464Z,17.33
2017-10-23T07:51:58.997Z,16.60
2017-10-23T07:54:27.337Z,13.83
2017-10-23T07:56:54.883Z,17.87
2017-10-23T07:59:22.422Z,16.53
2017-10-23T08:01:49.953Z,12.97
2017-10-23T08:04:18.117Z,23.67
2017-10-23T08:06:46.549Z,21.30
2017-10-23T08:09:14.101Z,20.63
2017-10-23T08:11:42.357Z,19.43
2017-10-23T08:14:09.901Z,19.53
2017-10-23T08:16:37.436Z,18.80
2017-10-23T08:19:05.896Z,21.40
2017-10-23T08:21:33.428Z,18.03
2017-10-23T08:24:00.999Z,27.43
2017-10-23T08:26:28.554Z,18.17
2017-10-23T08:28:56.090Z,15.97
2017-10-23T08:31:24.428Z,23.33
2017-10-23T08:33:51.965Z,20.10
2017-10-23T08:36:19.501Z,27.10
2017-10-23T08:38:47.045Z,17.27
2017-10-23T08:41:14.592Z,18.70
2017-10-23T08:43:43.105Z,15.23
2017-10-23T08:46:10.652Z,20.73
2017-10-23T08:48:38.984Z,20.77
2017-10-23T08:51:06.508Z,21.17
2017-10-23T08:53:34.046Z,14.70
2017-10-23T08:56:02.263Z,12.10
2017-10-23T08:58:31.418Z,16.60
2017-10-23T09:00:59.736Z,22.37
2017-10-23T09:03:27.284Z,13.50
2017-10-23T09:05:54.818Z,12.87
2017-10-23T09:08:23.161Z,15.50
2017-10-23T09:10:50.709Z,13.73
2017-10-23T09:13:18.292Z,13.67
2017-10-23T09:15:45.827Z,14.03
2017-10-23T09:18:14.260Z,17.57
2017-10-23T09:20:41.798Z,11.50
2017-10-23T09:23:09.357Z,9.60
2017-10-23T09:25:36.890Z,9.27
2017-10-23T09:28:04.470Z,15.40
2017-10-23T09:30:32.308Z,13.37
2017-10-23T09:33:00.760Z,13.13
2017-10-23T09:35:28.300Z,12.13
2017-10-23T09:37:55.883Z,9.10
2017-10-23T09:40:23.429Z,10.90
2017-10-23T09:42:51.737Z,11.03
2017-10-23T09:45:19.272Z,9.57
2017-10-23T09:47:47.652Z,9.40
2017-10-23T09:50:15.556Z,8.00
2017-10-23T09:52:44.076Z,9.53
2017-10-23T09:55:11.611Z,8.77
2017-10-23T09:57:39.150Z,8.53
2017-10-23T10:00:07.458Z,10.50
2017-10-23T10:02:35.781Z,8.73
2017-10-23T10:05:03.328Z,11.23
2017-10-23T10:07:31.460Z,6.27
2017-10-23T10:09:58.998Z,13.40
2017-10-23T10:12:26.539Z,9.10
2017-10-23T10:14:54.073Z,8.27
2017-10-23T10:17:21.649Z,10.13
2017-10-23T10:19:49.184Z,9.77
2017-10-23T10:22:16.718Z,8.77
2017-10-23T10:24:44.262Z,13.43
2017-10-23T10:27:11.795Z,7.57
2017-10-23T10:29:39.336Z,12.10
2017-10-23T10:32:06.878Z,13.60
2017-10-23T10:34:34.460Z,8.40
2017-10-23T10:37:02.891Z,12.90
2017-10-23T10:39:30.707Z,6.70
2017-10-23T10:41:58.236Z,5.37
2017-10-23T10:44:25.765Z,6.23
2017-10-23T10:46:54.085Z,8.23
2017-10-23T10:49:22.447Z,6.07
2017-10-23T10:51:50.875Z,8.03
2017-10-23T10:54:18.407Z,7.43
2017-10-23T10:56:45.943Z,7.63
2017-10-23T10:59:13.488Z,8.07
2017-10-23T11:01:41.066Z,9.00
2017-10-23T11:04:08.591Z,7.80
2017-10-23T11:06:36.152Z,9.70
2017-10-23T11:09:03.742Z,8.40
2017-10-23T11:11:32.681Z,7.23
2017-10-23T11:14:01.946Z,9.23
2017-10-23T11:16:30.873Z,8.20
2017-10-23T11:18:59.189Z,8.23
2017-10-23T11:21:26.744Z,8.60
2017-10-23T11:23:54.270Z,9.13
2017-10-23T11:26:21.797Z,7.67
2017-10-23T11:28:49.326Z,6.23
2017-10-23T11:31:16.856Z,5.03
2017-10-23T11:33:44.385Z,5.70
2017-10-23T11:36:11.909Z,8.40
2017-10-23T11:38:40.342Z,5.20
2017-10-23T11:41:08.192Z,10.10
2017-10-23T11:43:36.684Z,9.00
2017-10-23T11:46:04.218Z,4.67
2017-10-23T11:48:32.811Z,4.80
2017-10-23T11:51:01.147Z,5.73
2017-10-23T11:53:29.464Z,5.33
2017-10-23T11:55:56.989Z,4.87
2017-10-23T11:58:25.471Z,4.20
2017-10-23T12:00:53.001Z,5.93
2017-10-23T12:03:20.685Z,5.10
2017-10-23T12:05:48.216Z,7.90
2017-10-23T12:08:15.750Z,5.40
2017-10-23T12:10:43.282Z,7.37
2017-10-23T12:13:10.809Z,7.67
2017-10-23T12:15:39.248Z,5.10
2017-10-23T12:18:07.437Z,3.93
2017-10-23T12:20:35.655Z,7.97
2017-10-23T12:23:03.202Z,5.97
2017-10-23T12:25:30.726Z,5.33
2017-10-23T12:27:59.042Z,4.13
2017-10-23T12:30:26.576Z,7.17
2017-10-23T12:32:54.118Z,8.13
2017-10-23T12:35:22.483Z,9.50
2017-10-23T12:37:50.046Z,7.00
2017-10-23T12:40:18.940Z,6.83
2017-10-23T12:42:47.390Z,7.10
2017-10-23T12:45:15.807Z,9.70
2017-10-23T12:47:43.357Z,16.00
2017-10-23T12:50:11.901Z,51.60
2017-10-23T12:52:39.440Z,16.20
2017-10-23T12:55:07.892Z,11.67
2017-10-23T12:57:36.222Z,9.27
2017-10-23T13:00:04.661Z,13.23
2017-10-23T13:02:32.980Z,12.87
2017-10-23T13:05:01.329Z,10.90
2017-10-23T13:07:29.565Z,10.53
2017-10-23T13:09:57.885Z,12.43
2017-10-23T13:12:26.240Z,10.63
2017-10-23T13:14:54.666Z,11.40
2017-10-23T13:17:23.133Z,10.97
2017-10-23T13:19:51.492Z,10.70
2017-10-23T13:22:19.921Z,13.30
2017-10-23T13:24:47.497Z,11.37
2017-10-23T13:27:15.981Z,11.70
2017-10-23T13:29:44.420Z,14.40
2017-10-23T13:32:12.773Z,14.77
2017-10-23T13:34:41.641Z,15.20
2017-10-23T13:37:09.956Z,16.33
2017-10-23T13:39:37.488Z,26.03
2017-10-23T13:42:05.075Z,18.97
2017-10-23T13:44:33.512Z,53.70
2017-10-23T13:47:01.089Z,22.80
2017-10-23T13:49:29.427Z,19.53
2017-10-23T13:51:56.961Z,21.20
2017-10-23T13:54:25.406Z,22.23
2017-10-23T13:56:52.945Z,13.07
2017-10-23T13:59:21.267Z,15.77
2017-10-23T14:01:48.811Z,15.37
2017-10-23T14:04:17.247Z,20.37
2017-10-23T14:06:44.781Z,14.80
2017-10-23T14:09:13.195Z,27.03
2017-10-23T14:11:41.284Z,28.50
2017-10-23T14:14:08.821Z,25.53
2017-10-23T14:16:36.360Z,22.90
2017-10-23T14:19:03.903Z,18.50
2017-10-23T14:21:31.462Z,17.20
2017-10-23T14:23:59.002Z,18.70
2017-10-23T14:26:26.546Z,24.77
2017-10-23T14:28:54.080Z,21.27
2017-10-23T14:31:22.328Z,21.30
2017-10-23T14:33:49.903Z,21.67
2017-10-23T14:36:17.445Z,25.13
2017-10-23T14:38:45.428Z,19.63
2017-10-23T14:41:13.086Z,25.53
2017-10-23T14:43:42.027Z,25.40
2017-10-23T14:46:09.568Z,19.03
2017-10-23T14:48:37.905Z,23.57
2017-10-23T14:51:06.647Z,31.97
2017-10-23T14:53:36.129Z,27.40
2017-10-23T14:56:03.690Z,24.63
2017-10-23T14:58:31.282Z,21.90
2017-10-23T15:00:58.824Z,27.10
2017-10-23T15:03:26.371Z,26.93
2017-10-23T15:05:53.912Z,24.60
2017-10-23T15:08:22.697Z,25.80
2017-10-23T15:10:51.153Z,27.87
2017-10-23T15:13:18.691Z,23.10
2017-10-23T15:15:46.237Z,32.50
2017-10-23T15:18:13.783Z,31.33
2017-10-23T15:20:41.637Z,26.13
2017-10-23T15:23:09.176Z,24.73
2017-10-23T15:25:36.717Z,22.80
2017-10-23T15:28:05.170Z,25.60
2017-10-23T15:30:32.711Z,21.33
2017-10-23T15:33:00.360Z,24.60
2017-10-23T15:35:28.807Z,24.73
2017-10-23T15:37:56.348Z,27.30
2017-10-23T15:40:23.927Z,29.73
2017-10-23T15:42:51.466Z,29.40
2017-10-23T15:45:19.835Z,26.47
2017-10-23T15:47:48.210Z,26.70
2017-10-23T15:50:16.818Z,28.43
2017-10-23T15:52:44.356Z,44.33
2017-10-23T15:55:12.598Z,46.97
2017-10-23T15:57:42.375Z,42.50
2017-10-23T16:00:09.967Z,34.67
2017-10-23T16:02:37.554Z,34.23
2017-10-23T16:05:05.780Z,37.37
2017-10-23T16:07:34.179Z,30.90
2017-10-23T16:10:01.727Z,29.30
2017-10-23T16:12:29.476Z,31.63
2017-10-23T16:14:57.073Z,44.80
2017-10-23T16:17:24.633Z,46.23
2017-10-23T16:19:53.168Z,52.40
2017-10-23T16:22:20.711Z,44.27
2017-10-23T16:24:49.160Z,44.93
2017-10-23T16:27:17.587Z,50.97
2017-10-23T16:29:45.166Z,37.50
2017-10-23T16:32:12.706Z,46.63
2017-10-23T16:34:42.645Z,53.60
2017-10-23T16:37:13.208Z,53.50
2017-10-23T16:39:41.548Z,44.80
2017-10-23T16:42:09.969Z,54.07
2017-10-23T16:44:37.508Z,39.73
2017-10-23T16:47:05.041Z,49.63
2017-10-23T16:49:33.404Z,42.03
2017-10-23T16:52:00.938Z,43.23
2017-10-23T16:54:29.307Z,36.83
2017-10-23T16:56:56.862Z,39.80
2017-10-23T16:59:25.303Z,32.60
2017-10-23T17:01:52.872Z,40.13
2017-10-23T17:04:20.414Z,34.70
2017-10-23T17:06:47.992Z,36.10
2017-10-23T17:09:16.076Z,36.23
2017-10-23T17:11:43.669Z,42.10
2017-10-23T17:14:12.047Z,36.43
2017-10-23T17:16:39.580Z,42.70
2017-10-23T17:19:07.119Z,35.37
2017-10-23T17:21:35.134Z,40.03
2017-10-23T17:24:03.606Z,49.37
2017-10-23T17:26:31.968Z,34.13
2017-10-23T17:28:59.552Z,36.30
2017-10-23T17:31:27.082Z,41.57
2017-10-23T17:33:55.629Z,38.17
2017-10-23T17:36:24.989Z,28.70
2017-10-23T17:38:53.162Z,34.90
2017-10-23T17:41:20.702Z,39.23
2017-10-23T17:43:48.240Z,38.50
2017-10-23T17:46:16.582Z,44.07
2017-10-23T17:48:45.032Z,35.63
2017-10-23T17:51:12.620Z,38.73
2017-10-23T17:53:40.231Z,32.50
2017-10-23T17:56:09.119Z,31.83
2017-10-23T17:58:36.722Z,52.97
2017-10-23T18:01:04.803Z,39.17
2017-10-23T18:03:32.386Z,43.23
2017-10-23T18:05:59.975Z,40.30
2017-10-23T18:08:27.571Z,41.97
2017-10-23T18:10:55.143Z,32.80
2017-10-23T18:13:23.551Z,42.20
2017-10-23T18:15:51.096Z,41.03
2017-10-23T18:18:19.285Z,36.50
2017-10-23T18:20:46.827Z,34.83
2017-10-23T18:23:14.359Z,44.90
2017-10-23T18:25:42.799Z,34.40
2017-10-23T18:28:10.346Z,32.17
2017-10-23T18:30:37.941Z,41.50
2017-10-23T18:33:06.287Z,38.03
2017-10-23T18:35:34.355Z,34.63
2017-10-23T18:38:01.893Z,38.80
2017-10-23T18:40:29.430Z,36.87
2017-10-23T18:42:56.972Z,28.90
2017-10-23T18:45:24.520Z,34.80
2017-10-23T18:47:52.049Z,33.47
2017-10-23T18:50:20.249Z,38.03
2017-10-23T18:52:47.791Z,38.47
2017-10-23T18:55:16.350Z,38.37
2017-10-23T18:57:43.970Z,36.33
2017-10-23T19:00:11.579Z,36.53
2017-10-23T19:02:39.233Z,35.30
2017-10-23T19:05:06.831Z,33.57
2017-10-23T19:07:35.610Z,39.80
2017-10-23T19:10:03.205Z,42.90
2017-10-23T19:12:30.789Z,38.33
2017-10-23T19:14:58.342Z,35.73
2017-10-23T19:17:25.880Z,48.00
2017-10-23T19:19:53.416Z,45.13
2017-10-23T19:22:21.576Z,41.47
2017-10-23T19:24:49.979Z,42.40
2017-10-23T19:27:17.660Z,41.80
2017-10-23T19:29:46.012Z,40.93
2017-10-23T19:32:14.359Z,39.13
2017-10-23T19:34:41.972Z,43.03
2017-10-23T19:37:10.451Z,39.07
2017-10-23T19:39:39.133Z,38.22
2017-10-23T19:42:08.323Z,38.00
2017-10-23T19:44:36.886Z,38.10
2017-10-23T19:47:04.439Z,33.23
2017-10-23T19:49:32.026Z,41.53
2017-10-23T19:51:59.575Z,42.00
2017-10-23T19:54:27.169Z,41.17
2017-10-23T19:56:54.704Z,39.77
2017-10-23T19:59:22.243Z,33.90
2017-10-23T20:01:50.422Z,33.53
2017-10-23T20:04:17.956Z,39.20
2017-10-23T20:06:45.504Z,36.30
2017-10-23T20:09:13.043Z,35.07
2017-10-23T20:11:40.629Z,40.77
2017-10-23T20:14:08.167Z,35.40
2017-10-23T20:16:35.705Z,43.47
2017-10-23T20:19:03.249Z,44.87
2017-10-23T20:21:30.794Z,38.57
2017-10-23T20:23:58.328Z,32.30
2017-10-23T20:26:26.034Z,45.77
2017-10-23T20:28:53.578Z,37.97
2017-10-23T20:31:21.879Z,43.40
2017-10-23T20:33:49.421Z,35.87
2017-10-23T20:38:51.355Z,49.03
2017-10-23T20:41:18.918Z,45.33
2017-10-23T20:43:46.460Z,34.27
2017-10-23T20:46:14.006Z,33.20
2017-10-23T20:48:41.547Z,34.70
2017-10-23T20:51:09.105Z,33.00
2017-10-23T20:53:36.672Z,42.47
2017-10-23T20:56:04.242Z,37.17
2017-10-23T20:58:31.779Z,43.37
2017-10-23T21:00:59.365Z,45.13
2017-10-23T21:03:27.821Z,43.23
2017-10-23T21:05:56.865Z,47.07
2017-10-23T21:08:25.207Z,47.00
2017-10-23T21:10:53.651Z,46.30
2017-10-23T21:13:21.340Z,37.30
2017-10-23T21:15:48.905Z,34.00
2017-10-23T21:18:17.228Z,42.03
2017-10-23T21:20:45.187Z,32.80
2017-10-23T21:23:13.609Z,35.30
2017-10-23T21:25:41.148Z,35.97
2017-10-23T21:28:08.695Z,37.80
2017-10-23T21:30:36.235Z,37.07
2017-10-23T21:33:03.776Z,33.57
2017-10-23T21:35:31.348Z,33.93
2017-10-23T21:37:59.752Z,30.97
2017-10-23T21:40:29.893Z,29.80
2017-10-23T21:42:57.421Z,25.23
2017-10-23T21:45:24.974Z,33.60
2017-10-23T21:48:12.179Z,35.60
2017-10-23T21:50:40.722Z,35.67
2017-10-23T21:53:08.249Z,27.70
2017-10-23T21:55:35.792Z,33.10
2017-10-23T21:58:03.324Z,29.87
2017-10-23T22:00:30.856Z,32.07
2017-10-23T22:02:58.835Z,32.40
2017-10-23T22:05:26.365Z,36.43
2017-10-23T22:07:53.952Z,31.47
2017-10-23T22:10:22.251Z,30.63
2017-10-23T22:12:50.573Z,26.47
2017-10-23T22:15:18.110Z,31.60
2017-10-23T22:17:45.635Z,31.40
2017-10-23T22:20:13.207Z,28.63
2017-10-23T22:22:40.783Z,35.40
2017-10-23T22:25:08.315Z,31.63
2017-10-23T22:27:35.853Z,37.83
2017-10-23T22:30:03.385Z,33.87
2017-10-23T22:32:31.479Z,25.07
2017-10-23T22:34:59.012Z,31.57
2017-10-23T22:37:26.541Z,26.57
2017-10-23T22:39:54.866Z,27.63
2017-10-23T22:42:22.425Z,36.23
2017-10-23T22:44:50.834Z,24.67
2017-10-23T22:47:18.402Z,29.00
2017-10-23T22:49:45.932Z,31.13
2017-10-23T22:52:13.519Z,33.87
2017-10-23T22:54:41.076Z,31.17
2017-10-23T22:57:08.607Z,36.90
2017-10-23T22:59:36.175Z,33.07
2017-10-23T23:02:04.619Z,32.93
2017-10-23T23:04:32.143Z,35.73
2017-10-23T23:07:00.656Z,65.87
2017-10-23T23:09:28.188Z,32.73
2017-10-23T23:11:55.726Z,60.93
2017-10-23T23:14:23.303Z,37.70
2017-10-23T23:16:50.832Z,30.23
2017-10-23T23:19:18.357Z,26.33
2017-10-23T23:21:45.883Z,37.17
2017-10-23T23:24:14.336Z,29.60
2017-10-23T23:26:41.900Z,30.27
2017-10-23T23:29:09.432Z,27.13
2017-10-23T23:31:36.967Z,30.23
2017-10-23T23:34:05.472Z,31.67
2017-10-23T23:36:33.006Z,27.03
2017-10-23T23:39:00.532Z,34.47
2017-10-23T23:41:28.851Z,31.67
2017-10-23T23:43:56.384Z,29.43
2017-10-23T23:46:23.948Z,33.50
2017-10-23T23:48:51.477Z,31.07
2017-10-23T23:51:19.951Z,32.53
2017-10-23T23:53:47.480Z,27.83
2017-10-23T23:56:15.045Z,29.57
2017-10-23T23:58:42.581Z,33.70
